Time;durP1;ratioP1;P1;durP2;ratioP2;P2;SDS_P1;SDS_P2;PMS_P1;PMS_P2;Temp;Humidity;BMP_temperature;BMP_pressure;BME280_temperature;BME280_humidity;BME280_pressure;Samples;Min_cycle;Max_cycle;Signal;HPM_P1;HPM_P2
2022/01/28 00:04:51;;;;;;;5.23;1.07;;;19.50;44.00;;;;;;5072014;28;20041;-65
2022/01/28 00:07:17;;;;;;;2.78;0.98;;;19.50;44.00;;;;;;5067672;28;20036;-65
2022/01/28 00:09:43;;;;;;;2.63;0.82;;;19.40;44.00;;;;;;5059953;28;20039;-65
2022/01/28 00:12:10;;;;;;;2.38;0.88;;;19.40;44.00;;;;;;5064657;28;20380;-65
2022/01/28 00:20:15;;;;;;;2.95;0.90;;;19.40;44.10;;;;;;5068432;28;20469;-65
2022/01/28 00:38:45;;;;;;;3.40;0.80;;;19.30;44.30;;;;;;5059789;28;20545;-66
2022/01/28 00:41:11;;;;;;;2.55;0.65;;;19.20;44.30;;;;;;5073275;28;20036;-67
2022/01/28 00:43:37;;;;;;;2.03;0.57;;;19.20;44.30;;;;;;5072594;28;20050;-67
2022/01/28 00:46:03;;;;;;;2.00;0.70;;;19.20;44.30;;;;;;5072955;28;20024;-66
2022/01/28 00:48:28;;;;;;;2.28;1.10;;;19.20;44.20;;;;;;5065029;28;20075;-66
2022/01/28 00:50:54;;;;;;;3.75;0.93;;;19.20;44.20;;;;;;5065346;28;20044;-66
2022/01/28 00:53:19;;;;;;;2.22;0.63;;;19.20;44.10;;;;;;5059153;28;20036;-66
2022/01/28 00:55:45;;;;;;;3.95;0.95;;;19.10;44.10;;;;;;5071741;28;20021;-66
2022/01/28 00:58:11;;;;;;;3.10;0.70;;;19.10;44.10;;;;;;5053640;28;20028;-66
2022/01/28 01:00:36;;;;;;;3.25;0.75;;;19.10;44.00;;;;;;5070033;28;20033;-66
2022/01/28 01:03:02;;;;;;;2.13;0.90;;;19.10;44.00;;;;;;5065003;28;20452;-67
2022/01/28 01:05:32;;;;;;;2.85;0.82;;;19.10;44.00;;;;;;5042734;28;20043;-67
2022/01/28 01:07:58;;;;;;;2.25;0.60;;;19.10;43.90;;;;;;5064234;28;20508;-67
2022/01/28 01:10:25;;;;;;;3.42;0.70;;;19.00;43.90;;;;;;5066435;28;20056;-66
2022/01/28 01:12:51;;;;;;;3.97;0.95;;;19.00;43.80;;;;;;5068836;28;20053;-67
2022/01/28 01:15:21;;;;;;;1.98;0.52;;;19.00;43.80;;;;;;5064747;28;20127;-66
2022/01/28 01:18:16;;;;;;;2.35;0.60;;;19.00;43.80;;;;;;5057250;28;20033;-66
2022/01/28 01:23:15;;;;;;;2.90;0.70;;;19.00;43.80;;;;;;5066584;28;20372;-66
2022/01/28 01:25:59;;;;;;;2.67;0.63;;;18.90;43.70;;;;;;5067275;28;20029;-66
2022/01/28 01:28:30;;;;;;;2.85;0.73;;;18.90;43.70;;;;;;5068115;28;20027;-66
2022/01/28 01:30:57;;;;;;;2.60;0.60;;;18.90;43.80;;;;;;5066824;28;20508;-66
2022/01/28 01:33:23;;;;;;;2.60;0.80;;;18.90;44.60;;;;;;5055987;28;20032;-66
2022/01/28 01:35:49;;;;;;;2.42;0.70;;;18.90;43.70;;;;;;5057207;28;20025;-66
2022/01/28 01:38:14;;;;;;;2.67;0.70;;;18.80;43.60;;;;;;5065930;28;20091;-66
2022/01/28 01:40:46;;;;;;;2.33;0.73;;;18.90;43.60;;;;;;5056787;28;20104;-67
2022/01/28 01:46:11;;;;;;;3.83;1.00;;;18.80;43.60;;;;;;5045491;28;20075;-66
2022/01/28 01:53:52;;;;;;;4.72;0.75;;;18.80;43.60;;;;;;5060553;28;20038;-66
2022/01/28 01:56:19;;;;;;;1.92;0.68;;;18.80;43.60;;;;;;5069569;28;20032;-65
2022/01/28 01:58:46;;;;;;;1.40;0.60;;;18.70;43.50;;;;;;5053966;28;20074;-66
2022/01/28 02:01:12;;;;;;;2.70;0.63;;;18.70;43.50;;;;;;5068679;28;20037;-66
2022/01/28 02:03:38;;;;;;;2.65;0.60;;;18.70;43.50;;;;;;5057997;28;20075;-66
2022/01/28 02:06:04;;;;;;;4.00;0.68;;;18.70;43.50;;;;;;5063407;28;20051;-67
2022/01/28 02:08:33;;;;;;;2.78;0.60;;;18.70;43.50;;;;;;5074344;28;20046;-66
2022/01/28 02:11:00;;;;;;;2.20;0.40;;;18.70;43.50;;;;;;5071549;28;20071;-66
2022/01/28 02:13:28;;;;;;;2.20;0.50;;;18.60;43.40;;;;;;5064016;28;20024;-67
2022/01/28 02:15:55;;;;;;;2.13;0.70;;;18.70;43.50;;;;;;5058369;28;20040;-67
2022/01/28 02:18:22;;;;;;;2.03;0.45;;;18.70;43.50;;;;;;5055882;28;20460;-67
2022/01/28 02:20:52;;;;;;;3.45;0.70;;;18.60;43.40;;;;;;5061050;28;20059;-67
2022/01/28 02:23:22;;;;;;;2.75;0.60;;;18.60;43.40;;;;;;5064793;28;20537;-67
2022/01/28 02:25:48;;;;;;;2.85;0.60;;;18.60;43.40;;;;;;5068533;28;20035;-67
2022/01/28 02:28:18;;;;;;;2.97;0.70;;;18.60;43.40;;;;;;5073666;28;20032;-67
2022/01/28 02:30:44;;;;;;;1.17;0.60;;;18.60;43.40;;;;;;5063450;28;20169;-67
2022/01/28 02:33:13;;;;;;;3.78;0.82;;;18.60;43.30;;;;;;5069040;28;20064;-66
2022/01/28 02:35:41;;;;;;;2.25;0.70;;;18.60;43.30;;;;;;5059257;28;20028;-66
2022/01/28 02:38:08;;;;;;;2.75;0.60;;;18.60;43.30;;;;;;5072097;28;20025;-66
2022/01/28 02:40:35;;;;;;;2.92;0.75;;;18.50;43.30;;;;;;5061322;28;20147;-66
2022/01/28 02:44:00;;;;;;;3.95;0.88;;;18.60;43.40;;;;;;5072919;28;20545;-66
2022/01/28 02:45:48;;;;;;;2.58;0.80;;;18.50;43.30;;;;;;5048973;28;20051;-65
2022/01/28 02:48:26;;;;;;;2.80;0.70;;;18.50;43.30;;;;;;5072326;28;20031;-66
2022/01/28 02:53:38;;;;;;;2.20;0.40;;;18.50;43.30;;;;;;5056990;28;20115;-66
2022/01/28 02:56:12;;;;;;;0.85;0.50;;;18.50;43.30;;;;;;5071400;28;20029;-65
2022/01/28 02:58:38;;;;;;;1.80;0.40;;;18.50;43.40;;;;;;5069869;28;20389;-66
2022/01/28 03:01:04;;;;;;;2.35;0.68;;;18.50;43.40;;;;;;5073207;28;20563;-67
2022/01/28 03:03:30;;;;;;;2.30;0.60;;;18.40;43.30;;;;;;5062559;28;20029;-66
2022/01/28 03:05:55;;;;;;;1.33;0.57;;;18.40;43.30;;;;;;5067363;28;20039;-66
2022/01/28 03:08:25;;;;;;;1.83;0.60;;;18.40;43.30;;;;;;5072826;28;20367;-66
2022/01/28 03:11:59;;;;;;;2.75;0.75;;;18.40;43.30;;;;;;5046215;28;20028;-66
2022/01/28 03:16:13;;;;;;;2.50;0.60;;;18.30;43.30;;;;;;5068937;28;20078;-66
2022/01/28 03:18:56;;;;;;;2.85;1.05;;;18.30;43.30;;;;;;5074719;28;20024;-66
2022/01/28 03:21:37;;;;;;;1.88;0.60;;;18.30;43.30;;;;;;5067217;28;20040;-66
2022/01/28 03:24:04;;;;;;;2.97;0.63;;;18.30;43.30;;;;;;5055383;28;20388;-66
2022/01/28 03:26:30;;;;;;;1.52;0.47;;;18.30;43.30;;;;;;5049289;28;20483;-66
2022/01/28 03:28:56;;;;;;;2.10;0.50;;;18.30;43.30;;;;;;5058727;28;20116;-66
2022/01/28 03:31:21;;;;;;;1.98;0.47;;;18.30;43.40;;;;;;5072808;28;20028;-66
2022/01/28 03:33:47;;;;;;;2.10;0.47;;;18.30;43.30;;;;;;5066514;28;20435;-66
2022/01/28 03:36:14;;;;;;;1.48;0.52;;;18.30;43.40;;;;;;5061937;28;20383;-66
2022/01/28 03:38:42;;;;;;;1.00;0.32;;;18.20;43.30;;;;;;5055277;28;20082;-66
2022/01/28 03:41:13;;;;;;;1.52;0.70;;;18.30;43.40;;;;;;5063251;28;20025;-67
2022/01/28 03:43:40;;;;;;;2.17;0.50;;;18.30;43.30;;;;;;5065068;28;20020;-67
2022/01/28 03:46:06;;;;;;;2.22;0.60;;;18.20;43.30;;;;;;5067043;28;20032;-67
2022/01/28 03:48:31;;;;;;;1.90;0.50;;;18.20;43.30;;;;;;5064675;28;20048;-66
2022/01/28 03:50:57;;;;;;;1.83;0.43;;;18.20;43.30;;;;;;5061249;28;20048;-66
2022/01/28 03:53:23;;;;;;;2.08;0.65;;;18.20;43.20;;;;;;5054228;28;20056;-66
2022/01/28 03:55:51;;;;;;;1.70;0.50;;;18.20;43.30;;;;;;5066219;28;20463;-66
2022/01/28 03:58:16;;;;;;;2.35;0.50;;;18.20;43.30;;;;;;5072318;28;20033;-66
2022/01/28 04:00:42;;;;;;;1.40;0.60;;;18.20;43.30;;;;;;5072729;28;20051;-66
2022/01/28 04:03:25;;;;;;;2.25;0.50;;;18.20;43.30;;;;;;5055093;28;20079;-66
2022/01/28 04:13:59;;;;;;;3.40;0.70;;;18.10;43.40;;;;;;5069903;28;20032;-67
2022/01/28 04:17:18;;;;;;;2.03;0.55;;;18.10;43.40;;;;;;5063804;28;20025;-65
2022/01/28 04:19:16;;;;;;;1.65;0.57;;;18.00;43.40;;;;;;5072479;28;20028;-66
2022/01/28 04:21:42;;;;;;;1.23;0.43;;;18.00;43.40;;;;;;5073100;28;20383;-67
2022/01/28 04:24:08;;;;;;;1.75;0.52;;;18.00;43.40;;;;;;5066349;28;20374;-66
2022/01/28 04:26:33;;;;;;;1.15;0.45;;;18.00;43.30;;;;;;5064533;28;20039;-66
2022/01/28 04:28:59;;;;;;;2.33;0.55;;;18.00;43.40;;;;;;5061092;28;20036;-67
2022/01/28 04:31:24;;;;;;;1.33;0.52;;;18.00;43.40;;;;;;5059594;28;20521;-67
2022/01/28 04:33:53;;;;;;;3.33;0.57;;;18.00;43.40;;;;;;5053261;28;20034;-67
2022/01/28 04:36:19;;;;;;;2.47;0.55;;;18.00;43.40;;;;;;5068617;28;20036;-67
2022/01/28 04:39:24;;;;;;;1.02;0.35;;;18.00;43.40;;;;;;5053317;28;20424;-67
2022/01/28 04:44:11;;;;;;;1.40;0.30;;;17.90;43.40;;;;;;5072451;28;20270;-67
2022/01/28 04:46:45;;;;;;;2.42;0.55;;;17.90;43.40;;;;;;5060163;28;20036;-67
2022/01/28 04:49:17;;;;;;;1.50;0.35;;;17.90;43.40;;;;;;5072287;28;20029;-67
2022/01/28 04:57:15;;;;;;;2.05;0.57;;;17.80;43.60;;;;;;5047348;28;20544;-66
2022/01/28 05:00:36;;;;;;;1.40;0.45;;;17.80;43.60;;;;;;5050924;28;20037;-66
2022/01/28 05:02:44;;;;;;;2.05;0.57;;;17.80;43.60;;;;;;5057089;28;20495;-67
2022/01/28 05:08:13;;;;;;;2.70;0.65;;;17.80;44.50;;;;;;5071661;28;20047;-67
2022/01/28 05:16:37;;;;;;;1.83;0.50;;;17.70;43.50;;;;;;5052258;28;20139;-66
2022/01/28 05:27:09;;;;;;;1.33;0.52;;;17.70;43.60;;;;;;5064121;28;20047;-66
2022/01/28 05:29:35;;;;;;;1.88;0.50;;;17.70;43.60;;;;;;5067538;28;20033;-67
2022/01/28 05:32:02;;;;;;;1.67;0.57;;;17.70;43.60;;;;;;5047779;28;20534;-67
2022/01/28 05:34:28;;;;;;;2.13;0.60;;;17.70;43.60;;;;;;5053386;28;20049;-67
2022/01/28 05:36:55;;;;;;;1.38;0.50;;;17.70;43.60;;;;;;5061883;28;20122;-67
2022/01/28 05:39:20;;;;;;;2.80;0.57;;;17.70;43.60;;;;;;5069925;28;20025;-67
2022/01/28 05:41:46;;;;;;;1.75;0.38;;;17.70;43.50;;;;;;5067096;28;20112;-67
2022/01/28 05:44:12;;;;;;;1.55;0.50;;;17.70;43.50;;;;;;5049932;28;20029;-67
2022/01/28 05:46:38;;;;;;;2.30;0.40;;;17.70;43.50;;;;;;5069501;28;20548;-66
2022/01/28 05:49:05;;;;;;;2.20;0.60;;;17.60;43.40;;;;;;5060720;28;20128;-67
2022/01/28 05:51:31;;;;;;;1.30;0.40;;;17.60;43.50;;;;;;5059019;28;20037;-67
2022/01/28 05:54:00;;;;;;;1.17;0.40;;;17.60;43.50;;;;;;5055787;28;20033;-67
2022/01/28 05:56:26;;;;;;;1.60;0.50;;;17.60;43.50;;;;;;5068309;28;20461;-67
2022/01/28 05:58:52;;;;;;;2.15;0.65;;;17.60;43.50;;;;;;5072321;28;20082;-65
2022/01/28 06:01:18;;;;;;;1.98;0.30;;;17.60;43.50;;;;;;5071855;28;20067;-65
2022/01/28 06:03:44;;;;;;;2.28;0.45;;;17.60;43.50;;;;;;5075462;28;20064;-65
2022/01/28 06:06:18;;;;;;;2.92;0.57;;;17.60;43.60;;;;;;5062210;28;20033;-65
2022/01/28 06:08:47;;;;;;;2.75;0.43;;;17.60;43.60;;;;;;5057668;28;20487;-66
2022/01/28 06:11:13;;;;;;;2.05;0.40;;;17.60;43.60;;;;;;5062618;28;20550;-67
2022/01/28 06:13:39;;;;;;;2.15;0.45;;;17.50;43.50;;;;;;5073502;28;20021;-67
2022/01/28 06:16:04;;;;;;;1.25;0.50;;;17.60;43.70;;;;;;5058648;28;20047;-67
2022/01/28 06:18:30;;;;;;;2.63;0.43;;;17.50;43.50;;;;;;5060448;28;20033;-67
2022/01/28 06:20:56;;;;;;;1.73;0.68;;;17.50;43.50;;;;;;5059772;28;20115;-67
2022/01/28 06:23:21;;;;;;;1.63;0.50;;;17.50;43.50;;;;;;5068931;28;20104;-66
2022/01/28 06:25:48;;;;;;;1.58;0.43;;;17.50;43.50;;;;;;5062069;28;20372;-66
2022/01/28 06:28:14;;;;;;;2.03;0.55;;;17.50;43.60;;;;;;5061547;28;20079;-65
2022/01/28 06:30:40;;;;;;;0.73;0.30;;;17.50;44.50;;;;;;5070505;28;20059;-66
2022/01/28 06:33:05;;;;;;;2.38;0.77;;;17.50;43.60;;;;;;5071994;28;20040;-67
2022/01/28 06:35:31;;;;;;;1.45;0.68;;;17.50;43.60;;;;;;5067617;28;20031;-66
2022/01/28 06:37:56;;;;;;;2.28;0.50;;;17.50;43.60;;;;;;5073975;28;20032;-66
2022/01/28 06:40:22;;;;;;;0.93;0.43;;;17.40;43.60;;;;;;5058571;28;20163;-65
2022/01/28 06:42:48;;;;;;;2.50;0.80;;;17.40;43.60;;;;;;5075232;28;20115;-65
2022/01/28 06:45:14;;;;;;;2.00;0.60;;;17.40;43.60;;;;;;5067664;28;20029;-66
2022/01/28 06:47:40;;;;;;;1.38;0.32;;;17.40;43.60;;;;;;5055812;28;20099;-66
2022/01/28 06:50:08;;;;;;;2.78;0.73;;;17.40;43.60;;;;;;5067440;28;20119;-65
2022/01/28 06:52:34;;;;;;;1.30;0.50;;;17.40;43.60;;;;;;5059918;28;20029;-66
2022/01/28 06:55:01;;;;;;;2.53;0.77;;;17.40;43.60;;;;;;5072975;28;20476;-66
2022/01/28 06:57:29;;;;;;;1.42;0.40;;;17.40;43.60;;;;;;5066486;28;20029;-65
2022/01/28 06:59:55;;;;;;;1.67;0.50;;;17.40;43.60;;;;;;5048612;28;20029;-65
2022/01/28 07:02:21;;;;;;;1.45;0.68;;;17.40;43.70;;;;;;5068657;28;20036;-66
2022/01/28 07:04:46;;;;;;;1.60;0.30;;;17.40;43.70;;;;;;5070941;28;20376;-65
2022/01/28 07:07:12;;;;;;;2.45;0.73;;;17.30;44.60;;;;;;5066769;28;20056;-65
2022/01/28 07:09:37;;;;;;;0.90;0.52;;;17.30;43.70;;;;;;5065763;28;20032;-65
2022/01/28 07:12:04;;;;;;;1.63;0.68;;;17.30;43.60;;;;;;5071606;28;20090;-66
2022/01/28 07:14:29;;;;;;;1.95;0.50;;;17.30;43.70;;;;;;5061803;28;20115;-67
2022/01/28 07:16:55;;;;;;;2.00;0.40;;;17.30;43.70;;;;;;5069417;28;20111;-67
2022/01/28 07:19:21;;;;;;;2.53;0.70;;;17.30;43.70;;;;;;5038067;28;20435;-67
2022/01/28 07:21:47;;;;;;;1.67;0.40;;;17.30;43.70;;;;;;5046794;28;20083;-67
2022/01/28 07:24:12;;;;;;;2.72;0.65;;;17.30;43.70;;;;;;5074591;28;20032;-67
2022/01/28 07:26:38;;;;;;;2.47;0.50;;;17.20;43.70;;;;;;5071195;28;20040;-67
2022/01/28 07:29:04;;;;;;;1.25;0.60;;;17.20;43.70;;;;;;5062737;28;20029;-67
2022/01/28 07:31:29;;;;;;;1.75;0.60;;;17.20;43.70;;;;;;5066876;28;20100;-66
2022/01/28 07:33:55;;;;;;;2.08;0.50;;;17.20;43.70;;;;;;5065049;28;20024;-66
2022/01/28 07:36:21;;;;;;;1.48;0.50;;;17.20;43.70;;;;;;5069670;28;20105;-65
2022/01/28 07:38:46;;;;;;;2.42;0.50;;;17.20;44.60;;;;;;5065286;28;20039;-69
2022/01/28 07:41:12;;;;;;;5.20;1.00;;;17.20;43.60;;;;;;5067032;28;20036;-67
2022/01/28 07:43:39;;;;;;;5.43;1.40;;;17.00;42.10;;;;;;5066191;28;20041;-66
2022/01/28 07:46:06;;;;;;;3.42;1.08;;;16.70;42.20;;;;;;5065288;28;20039;-67
2022/01/28 07:48:31;;;;;;;6.45;0.90;;;16.30;42.40;;;;;;5068193;28;20396;-66
2022/01/28 07:50:57;;;;;;;6.22;1.35;;;16.10;43.00;;;;;;5060532;28;20028;-67
2022/01/28 07:53:23;;;;;;;2.97;1.10;;;15.90;43.50;;;;;;5072275;28;20020;-67
2022/01/28 07:55:49;;;;;;;5.57;1.40;;;15.70;43.80;;;;;;5072170;28;20396;-67
2022/01/28 07:58:14;;;;;;;6.60;1.30;;;15.50;44.10;;;;;;5047556;28;20112;-64
2022/01/28 08:00:42;;;;;;;3.67;1.40;;;15.40;44.40;;;;;;5073885;28;20033;-64
2022/01/28 08:03:07;;;;;;;8.80;1.45;;;15.30;44.60;;;;;;5056279;28;20472;-65
2022/01/28 08:05:33;;;;;;;6.82;1.40;;;15.20;45.00;;;;;;5041763;28;20060;-65
2022/01/28 08:08:04;;;;;;;6.85;1.27;;;15.10;45.20;;;;;;5053984;28;20068;-65
2022/01/28 08:10:29;;;;;;;6.90;1.60;;;15.00;46.40;;;;;;5073276;28;20016;-65
2022/01/28 08:12:55;;;;;;;8.65;1.52;;;15.00;45.70;;;;;;5073979;28;20035;-65
2022/01/28 08:15:22;;;;;;;4.03;1.42;;;14.90;46.10;;;;;;5073647;28;20020;-67
2022/01/28 08:17:49;;;;;;;7.82;1.27;;;14.80;46.10;;;;;;5073863;28;20025;-67
2022/01/28 08:20:15;;;;;;;7.05;1.50;;;14.80;46.40;;;;;;5073622;28;20024;-67
2022/01/28 08:22:48;;;;;;;4.45;1.38;;;14.70;46.60;;;;;;5055807;28;20039;-67
2022/01/28 08:25:16;;;;;;;7.50;1.75;;;14.60;46.90;;;;;;5073623;28;20017;-67
2022/01/28 08:27:44;;;;;;;5.75;1.13;;;14.50;47.10;;;;;;5055693;28;20035;-67
2022/01/28 08:30:15;;;;;;;4.70;1.10;;;14.50;47.40;;;;;;5074643;28;20111;-68
2022/01/28 08:32:41;;;;;;;6.03;1.05;;;14.40;47.60;;;;;;5073090;28;20029;-67
2022/01/28 08:35:07;;;;;;;5.13;1.27;;;14.40;48.30;;;;;;5071376;28;20032;-68
2022/01/28 08:37:33;;;;;;;7.75;1.27;;;14.60;48.50;;;;;;5073039;28;20032;-67
2022/01/28 08:40:01;;;;;;;4.15;1.00;;;14.90;48.30;;;;;;5065574;28;20032;-66
2022/01/28 08:42:27;;;;;;;4.90;1.20;;;15.10;48.10;;;;;;5059216;28;20020;-67
2022/01/28 08:44:53;;;;;;;5.63;1.10;;;15.30;48.00;;;;;;5070845;28;20555;-67
2022/01/28 08:47:19;;;;;;;4.47;1.15;;;15.50;47.70;;;;;;5072018;28;20116;-66
2022/01/28 08:49:46;;;;;;;6.55;1.40;;;15.70;47.30;;;;;;5070763;28;20020;-68
2022/01/28 08:52:12;;;;;;;4.75;1.50;;;15.80;46.90;;;;;;5069812;28;20028;-67
2022/01/28 08:54:37;;;;;;;5.43;0.98;;;15.90;46.80;;;;;;5057150;28;20020;-67
2022/01/28 08:57:04;;;;;;;6.38;1.30;;;16.00;46.60;;;;;;5065209;28;20074;-66
2022/01/28 08:59:29;;;;;;;4.85;1.13;;;16.10;46.70;;;;;;5070862;28;20075;-67
2022/01/28 09:01:55;;;;;;;2.42;0.90;;;16.10;46.60;;;;;;5048724;28;20091;-66
2022/01/28 09:04:21;;;;;;;5.80;1.20;;;16.20;46.60;;;;;;5070345;28;20033;-66
2022/01/28 09:06:46;;;;;;;4.30;1.27;;;16.30;46.40;;;;;;5070330;28;20052;-67
2022/01/28 09:09:12;;;;;;;6.13;1.50;;;16.40;46.50;;;;;;5063827;28;20491;-67
2022/01/28 09:12:27;;;;;;;5.20;1.20;;;16.40;45.90;;;;;;5055491;28;20512;-67
2022/01/28 09:14:30;;;;;;;6.90;1.10;;;16.50;45.80;;;;;;5057297;28;20037;-67
2022/01/28 09:16:56;;;;;;;5.25;1.30;;;16.50;45.70;;;;;;5049530;28;20029;-67
2022/01/28 09:19:23;;;;;;;5.00;1.20;;;16.60;45.60;;;;;;5072087;28;20033;-67
2022/01/28 09:21:49;;;;;;;5.38;1.13;;;16.60;45.50;;;;;;5071827;28;20029;-67
2022/01/28 09:24:14;;;;;;;4.70;0.98;;;16.70;45.30;;;;;;5072753;28;20036;-67
2022/01/28 09:26:40;;;;;;;4.47;0.98;;;16.70;45.10;;;;;;5052567;28;20029;-67
2022/01/28 09:29:06;;;;;;;4.53;1.70;;;16.80;45.10;;;;;;5058923;28;20219;-67
2022/01/28 09:31:32;;;;;;;3.22;1.10;;;16.80;45.00;;;;;;5066260;28;20074;-67
2022/01/28 09:33:57;;;;;;;6.28;1.33;;;16.80;44.90;;;;;;5056761;28;20037;-67
2022/01/28 09:36:23;;;;;;;6.68;1.63;;;16.80;44.90;;;;;;5073002;28;20075;-67
2022/01/28 09:38:49;;;;;;;9.18;1.52;;;16.90;44.80;;;;;;5068808;28;20128;-67
2022/01/28 09:41:16;;;;;;;3.05;0.77;;;16.90;44.70;;;;;;5065133;28;20535;-67
2022/01/28 09:43:44;;;;;;;4.55;1.30;;;16.90;44.60;;;;;;5063191;28;20114;-67
2022/01/28 09:46:10;;;;;;;5.57;0.95;;;16.90;44.50;;;;;;5061750;28;20039;-67
2022/01/28 09:48:37;;;;;;;6.25;1.30;;;17.00;44.50;;;;;;5076458;28;20029;-67
2022/01/28 09:51:04;;;;;;;5.40;1.25;;;17.00;44.40;;;;;;5074204;28;20052;-67
2022/01/28 09:53:30;;;;;;;4.28;1.30;;;17.00;44.30;;;;;;5057476;28;20025;-67
2022/01/28 09:55:56;;;;;;;4.15;1.52;;;17.00;44.30;;;;;;5072955;28;20027;-67
2022/01/28 09:58:22;;;;;;;4.25;1.10;;;17.00;44.20;;;;;;5069814;28;20029;-68
2022/01/28 10:00:48;;;;;;;4.20;1.00;;;17.10;44.20;;;;;;5073581;28;20029;-66
2022/01/28 10:03:15;;;;;;;3.13;0.90;;;17.10;44.00;;;;;;5064635;28;20082;-65
2022/01/28 10:05:46;;;;;;;4.75;0.98;;;17.10;43.90;;;;;;5071661;28;20475;-66
2022/01/28 10:08:26;;;;;;;3.55;1.17;;;17.10;43.80;;;;;;5065751;28;20508;-66
2022/01/28 10:10:58;;;;;;;4.63;1.33;;;17.10;43.70;;;;;;5068059;28;20033;-67
2022/01/28 10:13:37;;;;;;;4.72;1.33;;;17.10;43.90;;;;;;5068577;28;20020;-67
2022/01/28 10:16:07;;;;;;;2.20;0.82;;;17.10;44.10;;;;;;5067725;28;20021;-67
2022/01/28 10:18:51;;;;;;;7.35;1.30;;;17.10;44.10;;;;;;5066393;28;20060;-67
2022/01/28 10:21:37;;;;;;;1.63;0.70;;;17.10;44.00;;;;;;5068420;28;20028;-66
2022/01/28 10:24:17;;;;;;;4.93;1.25;;;17.10;44.10;;;;;;5069005;28;20109;-67
2022/01/28 10:26:55;;;;;;;4.80;1.20;;;17.10;44.20;;;;;;5072208;28;20033;-66
2022/01/28 10:29:24;;;;;;;6.85;1.40;;;17.10;44.40;;;;;;5055535;28;20033;-66
2022/01/28 10:31:54;;;;;;;4.68;1.42;;;17.10;44.40;;;;;;5070878;28;20031;-67
2022/01/28 10:34:29;;;;;;;3.65;1.00;;;17.10;44.40;;;;;;5064402;28;20025;-66
2022/01/28 10:37:14;;;;;;;6.70;1.23;;;17.10;44.40;;;;;;5061422;28;20032;-67
2022/01/28 10:39:46;;;;;;;4.82;1.10;;;17.20;44.50;;;;;;5054040;28;20029;-66
2022/01/28 10:42:17;;;;;;;3.63;1.63;;;17.10;44.50;;;;;;5064305;28;20069;-67
2022/01/28 10:44:54;;;;;;;4.05;0.90;;;17.10;45.50;;;;;;5075479;28;20028;-67
2022/01/28 10:47:35;;;;;;;5.63;1.33;;;17.20;44.60;;;;;;5057823;28;20024;-66
2022/01/28 10:50:14;;;;;;;5.10;1.45;;;17.20;44.60;;;;;;5068102;28;20052;-67
2022/01/28 10:52:41;;;;;;;4.55;1.10;;;17.20;44.60;;;;;;5055660;28;20025;-67
2022/01/28 10:55:07;;;;;;;4.32;1.15;;;17.20;44.60;;;;;;5062947;28;20031;-66
2022/01/28 10:57:32;;;;;;;2.85;1.00;;;17.20;44.60;;;;;;5066270;28;20028;-66
2022/01/28 10:59:58;;;;;;;4.03;1.05;;;17.20;44.50;;;;;;5066719;28;20052;-67
2022/01/28 11:02:25;;;;;;;2.75;1.10;;;17.30;44.60;;;;;;5055086;28;20123;-66
2022/01/28 11:04:54;;;;;;;3.78;1.38;;;17.30;44.50;;;;;;5055471;28;20104;-66
2022/01/28 11:07:20;;;;;;;7.60;1.50;;;17.30;44.50;;;;;;5054896;28;20037;-68
2022/01/28 11:09:46;;;;;;;2.95;0.82;;;17.30;44.50;;;;;;5063879;28;20392;-67
2022/01/28 11:12:13;;;;;;;5.22;1.30;;;17.30;44.50;;;;;;5074993;28;20024;-67
2022/01/28 11:14:39;;;;;;;5.00;1.10;;;17.30;44.60;;;;;;5075022;28;20029;-67
2022/01/28 11:17:04;;;;;;;4.38;1.15;;;17.30;44.60;;;;;;5074135;28;20036;-67
2022/01/28 11:19:35;;;;;;;6.88;1.20;;;17.40;44.60;;;;;;5073832;28;20457;-67
2022/01/28 11:22:16;;;;;;;6.22;1.50;;;17.40;44.50;;;;;;5056698;28;20459;-67
2022/01/28 11:24:47;;;;;;;2.92;1.17;;;17.40;44.50;;;;;;5074382;28;20016;-67
2022/01/28 11:27:29;;;;;;;2.67;0.90;;;17.40;44.60;;;;;;5074779;28;20033;-67
2022/01/28 11:30:28;;;;;;;2.78;1.20;;;17.40;44.50;;;;;;5056652;28;20059;-67
2022/01/28 11:33:11;;;;;;;1.90;0.93;;;17.40;44.40;;;;;;5074275;28;20077;-68
2022/01/28 11:35:39;;;;;;;2.92;1.08;;;17.40;44.50;;;;;;5056592;28;20369;-67
2022/01/28 11:38:30;;;;;;;3.25;1.00;;;17.40;44.60;;;;;;5074503;28;20020;-67
2022/01/28 11:41:05;;;;;;;3.10;0.90;;;17.40;44.40;;;;;;5074226;28;20507;-67
2022/01/28 11:43:33;;;;;;;3.70;1.15;;;17.40;44.80;;;;;;5074518;28;20115;-67
2022/01/28 11:46:19;;;;;;;2.90;1.02;;;17.50;45.00;;;;;;5072319;28;20460;-67
2022/01/28 11:49:04;;;;;;;5.47;1.30;;;17.50;44.90;;;;;;5065056;28;20033;-67
2022/01/28 11:51:33;;;;;;;4.82;1.40;;;17.60;44.80;;;;;;5069882;28;20036;-67
2022/01/28 11:54:10;;;;;;;3.60;1.42;;;17.60;44.80;;;;;;5061963;28;20036;-67
2022/01/28 11:56:57;;;;;;;7.10;1.50;;;17.60;44.80;;;;;;5067017;28;20013;-67
2022/01/28 11:59:27;;;;;;;3.78;1.23;;;17.60;45.10;;;;;;5070561;28;20056;-67
2022/01/28 12:01:53;;;;;;;5.60;1.50;;;17.60;45.50;;;;;;5073958;28;20064;-67
2022/01/28 12:04:25;;;;;;;5.93;1.05;;;17.60;45.70;;;;;;5069903;28;20060;-67
2022/01/28 12:06:54;;;;;;;4.90;0.93;;;17.70;46.00;;;;;;5059306;28;20384;-67
2022/01/28 12:09:20;;;;;;;5.82;1.30;;;17.70;45.90;;;;;;5073744;28;20037;-67
2022/01/28 12:11:46;;;;;;;5.97;1.30;;;17.70;45.90;;;;;;5073752;28;20365;-67
2022/01/28 12:14:14;;;;;;;4.25;1.38;;;17.70;45.80;;;;;;5073971;28;20025;-67
2022/01/28 12:16:46;;;;;;;3.53;1.23;;;17.70;46.00;;;;;;5073621;28;20488;-67
2022/01/28 12:19:22;;;;;;;2.53;1.08;;;17.70;46.10;;;;;;5073695;28;20074;-67
2022/01/28 12:22:10;;;;;;;3.58;1.30;;;17.70;46.00;;;;;;5073517;28;20020;-68
2022/01/28 12:24:37;;;;;;;3.70;1.20;;;17.70;46.00;;;;;;5073251;28;20115;-67
2022/01/28 12:27:08;;;;;;;3.13;1.08;;;17.70;46.20;;;;;;5055863;28;20021;-67
2022/01/28 12:29:46;;;;;;;4.25;0.95;;;17.70;46.20;;;;;;5053352;28;20029;-67
2022/01/28 12:32:12;;;;;;;4.20;1.27;;;17.70;46.30;;;;;;5061335;28;20020;-67
2022/01/28 12:34:44;;;;;;;3.67;1.08;;;17.70;46.30;;;;;;5068432;28;20484;-67
2022/01/28 12:37:10;;;;;;;2.53;0.90;;;17.70;46.40;;;;;;5058239;28;20123;-67
2022/01/28 12:39:42;;;;;;;3.25;0.95;;;17.70;46.40;;;;;;5053326;28;20497;-67
2022/01/28 12:42:23;;;;;;;3.03;1.08;;;17.70;46.30;;;;;;5060013;28;20068;-67
2022/01/28 12:44:56;;;;;;;4.30;0.80;;;17.70;46.00;;;;;;5054868;28;20078;-67
2022/01/28 12:47:23;;;;;;;2.78;0.90;;;17.80;45.90;;;;;;5066572;28;20733;-67
2022/01/28 12:49:56;;;;;;;4.43;1.08;;;17.80;45.90;;;;;;5063006;28;20037;-67
2022/01/28 12:52:22;;;;;;;3.22;0.75;;;17.90;46.70;;;;;;5057634;28;20045;-67
2022/01/28 12:54:48;;;;;;;4.10;0.70;;;18.00;45.60;;;;;;5069708;28;20737;-67
2022/01/28 12:57:17;;;;;;;3.13;1.08;;;18.00;45.20;;;;;;5064952;28;20016;-67
2022/01/28 12:59:45;;;;;;;2.25;0.75;;;18.20;45.00;;;;;;5069590;28;20454;-67
2022/01/28 13:02:12;;;;;;;2.08;0.70;;;18.20;44.70;;;;;;5072453;28;20029;-68
2022/01/28 13:10:24;;;;;;;1.73;0.70;;;18.50;43.80;;;;;;5065116;28;20527;-67
2022/01/28 13:12:50;;;;;;;3.03;0.68;;;18.60;43.60;;;;;;5073209;28;20019;-67
2022/01/28 13:15:17;;;;;;;1.95;0.63;;;18.70;43.30;;;;;;5076164;28;20496;-68
2022/01/28 13:17:57;;;;;;;3.22;0.70;;;18.80;43.00;;;;;;5056896;28;20029;-67
2022/01/28 13:20:25;;;;;;;2.65;0.50;;;19.00;42.50;;;;;;5075615;28;20025;-67
2022/01/28 13:22:53;;;;;;;1.50;0.50;;;19.00;42.50;;;;;;5075612;28;20032;-67
2022/01/28 13:25:24;;;;;;;2.50;0.57;;;19.20;42.30;;;;;;5064758;28;20052;-67
2022/01/28 13:27:54;;;;;;;2.30;0.57;;;19.30;41.90;;;;;;5065809;28;20025;-67
2022/01/28 13:30:21;;;;;;;2.35;0.60;;;19.40;41.70;;;;;;5069387;28;20098;-67
2022/01/28 13:32:52;;;;;;;3.17;0.50;;;19.50;41.40;;;;;;5059271;28;20040;-67
2022/01/28 13:35:24;;;;;;;1.48;0.63;;;19.70;42.10;;;;;;5072334;28;20025;-67
2022/01/28 13:38:01;;;;;;;1.92;0.50;;;19.80;40.70;;;;;;5064752;28;20028;-67
2022/01/28 13:40:26;;;;;;;2.40;0.75;;;19.90;40.40;;;;;;5064644;28;20029;-67
2022/01/28 13:43:09;;;;;;;2.50;0.50;;;20.10;40.30;;;;;;5072458;28;20025;-67
2022/01/28 13:45:37;;;;;;;;;;;20.20;39.80;;;;;;5061314;28;20032;-67
2022/01/28 13:48:16;;;;;;;2.85;0.47;;;20.20;39.50;;;;;;5071289;28;19943;-67
2022/01/28 13:50:44;;;;;;;2.13;0.88;;;20.30;39.50;;;;;;5062292;28;20108;-67
2022/01/28 13:56:03;;;;;;;1.45;0.52;;;20.50;38.80;;;;;;5075057;28;20480;-67
2022/01/28 13:58:41;;;;;;;1.95;0.70;;;20.60;39.00;;;;;;5074392;28;20483;-67
2022/01/28 14:01:10;;;;;;;2.60;0.52;;;20.60;38.80;;;;;;5069345;28;20123;-68
2022/01/28 14:03:48;;;;;;;2.65;0.60;;;20.80;38.60;;;;;;5057390;28;20485;-67
2022/01/28 14:06:18;;;;;;;1.10;0.40;;;20.90;38.30;;;;;;5075152;28;20020;-67
2022/01/28 14:08:54;;;;;;;2.33;0.63;;;21.00;38.30;;;;;;5069958;28;20037;-68
2022/01/28 14:11:38;;;;;;;1.13;0.60;;;21.00;38.00;;;;;;5066678;28;20059;-67
2022/01/28 14:14:20;;;;;;;2.80;0.60;;;21.10;37.70;;;;;;5069530;28;20020;-66
2022/01/28 14:16:47;;;;;;;1.17;0.60;;;21.10;37.70;;;;;;5074421;28;20017;-66
2022/01/28 14:19:13;;;;;;;1.83;0.50;;;21.10;37.70;;;;;;5069630;28;20028;-65
2022/01/28 14:21:40;;;;;;;2.42;0.70;;;21.20;37.80;;;;;;5058104;28;20025;-65